createdAt,value
2018-08-04T00:00:31.787Z,24.30
2018-08-04T00:05:26.482Z,23.90
2018-08-04T00:10:22.086Z,23.90
2018-08-04T00:15:17.000Z,24.00
2018-08-04T00:20:11.629Z,23.90
2018-08-04T00:25:06.415Z,23.90
2018-08-04T00:30:01.052Z,23.80
2018-08-04T00:34:55.678Z,23.60
2018-08-04T00:39:50.472Z,23.60
2018-08-04T00:44:45.127Z,23.60
2018-08-04T00:49:39.778Z,23.70
2018-08-04T00:54:34.345Z,23.60
2018-08-04T00:59:28.976Z,23.60
2018-08-04T01:04:23.666Z,23.50
2018-08-04T01:09:18.266Z,23.50
2018-08-04T01:14:12.879Z,23.40
2018-08-04T01:19:07.493Z,23.20
2018-08-04T01:24:02.033Z,22.90
2018-08-04T01:28:57.525Z,22.90
2018-08-04T01:33:52.126Z,23.10
2018-08-04T01:38:46.752Z,23.10
2018-08-04T01:43:41.382Z,23.00
2018-08-04T01:48:36.033Z,23.00
2018-08-04T01:53:30.722Z,22.90
2018-08-04T01:58:25.315Z,22.90
2018-08-04T02:03:19.923Z,22.70
2018-08-04T02:08:14.526Z,22.60
2018-08-04T02:13:09.193Z,22.60
2018-08-04T02:18:03.804Z,22.50
2018-08-04T02:22:58.396Z,22.50
2018-08-04T02:32:47.265Z,22.50
2018-08-04T02:37:41.959Z,22.50
2018-08-04T02:42:36.594Z,22.30
2018-08-04T02:47:31.170Z,22.40
2018-08-04T02:52:26.089Z,22.40
2018-08-04T02:57:20.704Z,22.20
2018-08-04T03:02:15.369Z,22.10
2018-08-04T03:07:10.275Z,22.00
2018-08-04T03:12:05.329Z,21.90
2018-08-04T03:16:59.880Z,21.70
2018-08-04T03:21:54.538Z,21.90
2018-08-04T03:26:49.142Z,22.00
2018-08-04T03:31:43.784Z,21.90
2018-08-04T03:36:38.934Z,21.90
2018-08-04T03:41:33.592Z,21.80
2018-08-04T03:46:28.180Z,21.80
2018-08-04T03:51:22.766Z,21.80
2018-08-04T03:56:17.379Z,21.70
2018-08-04T04:01:11.988Z,21.60
2018-08-04T04:06:06.724Z,21.40
2018-08-04T04:11:01.354Z,21.40
2018-08-04T04:15:56.034Z,21.50
2018-08-04T04:20:50.682Z,21.70
2018-08-04T04:25:45.304Z,21.60
2018-08-04T04:30:39.892Z,21.40
2018-08-04T04:35:34.549Z,21.50
2018-08-04T04:40:29.197Z,21.40
2018-08-04T04:45:23.779Z,21.40
2018-08-04T04:50:18.399Z,21.60
2018-08-04T04:55:13.018Z,21.70
2018-08-04T05:00:07.691Z,22.00
2018-08-04T05:05:02.295Z,22.40
2018-08-04T05:09:57.412Z,22.80
2018-08-04T05:14:51.982Z,22.80
2018-08-04T05:19:46.601Z,23.20
2018-08-04T05:24:41.209Z,23.30
2018-08-04T05:29:35.975Z,23.60
2018-08-04T05:34:30.599Z,23.80
2018-08-04T05:39:25.249Z,23.90
2018-08-04T05:44:19.934Z,24.10
2018-08-04T05:49:14.551Z,24.20
2018-08-04T05:59:03.445Z,24.50
2018-08-04T06:03:58.053Z,24.50
2018-08-04T06:08:52.754Z,24.50
2018-08-04T06:13:47.916Z,24.40
2018-08-04T06:18:43.950Z,24.40
2018-08-04T06:23:38.526Z,24.40
2018-08-04T06:28:33.163Z,24.40
2018-08-04T06:33:27.755Z,24.50
2018-08-04T06:38:22.379Z,24.60
2018-08-04T06:43:17.013Z,24.60
2018-08-04T06:48:11.631Z,24.70
2018-08-04T06:53:06.335Z,24.90
2018-08-04T06:58:00.978Z,25.00
2018-08-04T07:02:55.670Z,25.30
2018-08-04T07:07:50.291Z,25.40
2018-08-04T07:12:44.970Z,25.40
2018-08-04T07:17:39.548Z,25.60
2018-08-04T07:22:34.238Z,26.00
2018-08-04T07:27:28.919Z,26.30
2018-08-04T07:32:23.507Z,26.50
2018-08-04T07:42:12.429Z,27.00
2018-08-04T07:47:07.151Z,27.10
2018-08-04T07:52:02.428Z,27.20
2018-08-04T07:56:57.212Z,27.30
2018-08-04T08:01:51.930Z,27.60
2018-08-04T08:06:46.546Z,27.60
2018-08-04T08:11:41.214Z,27.90
2018-08-04T08:16:35.792Z,28.00
2018-08-04T08:21:30.475Z,28.30
2018-08-04T08:26:25.069Z,28.70
2018-08-04T08:31:19.931Z,28.80
2018-08-04T08:36:14.570Z,29.10
2018-08-04T08:41:10.059Z,29.10
2018-08-04T08:50:59.067Z,29.00
2018-08-04T08:55:53.983Z,29.30
2018-08-04T09:05:43.017Z,29.60
2018-08-04T09:10:37.664Z,29.80
2018-08-04T09:15:32.327Z,30.10
2018-08-04T09:20:28.370Z,30.30
2018-08-04T09:25:23.509Z,30.20
2018-08-04T09:30:18.102Z,30.40
2018-08-04T09:35:13.896Z,30.60
2018-08-04T09:40:11.894Z,30.90
2018-08-04T09:45:08.192Z,31.10
2018-08-04T09:50:02.842Z,31.00
2018-08-04T09:54:57.453Z,31.10
2018-08-04T09:59:52.153Z,31.30
2018-08-04T10:04:46.759Z,31.40
2018-08-04T10:09:41.371Z,31.60
2018-08-04T10:14:35.964Z,31.40
2018-08-04T10:19:30.552Z,31.50
2018-08-04T10:24:25.133Z,31.80
2018-08-04T10:29:19.748Z,31.80
2018-08-04T10:34:14.320Z,32.00
2018-08-04T10:39:10.377Z,32.20
2018-08-04T10:44:05.097Z,32.60
2018-08-04T10:48:59.728Z,33.10
2018-08-04T10:53:54.438Z,33.20
2018-08-04T10:58:48.999Z,33.40
2018-08-04T11:03:46.520Z,33.80
2018-08-04T11:08:41.146Z,33.40
2018-08-04T11:13:35.746Z,33.30
2018-08-04T11:18:30.368Z,33.60
2018-08-04T11:23:24.958Z,34.00
2018-08-04T11:28:19.509Z,34.60
2018-08-04T11:38:08.347Z,34.50
2018-08-04T11:43:02.944Z,34.40
2018-08-04T11:47:57.551Z,34.60
2018-08-04T11:52:52.451Z,34.90
2018-08-04T11:57:47.064Z,35.20
2018-08-04T12:07:35.974Z,34.30
2018-08-04T12:12:30.615Z,33.50
2018-08-04T12:17:25.385Z,32.90
2018-08-04T12:22:21.626Z,32.30
2018-08-04T12:27:16.271Z,31.80
2018-08-04T12:32:10.889Z,31.60
2018-08-04T12:37:05.569Z,31.70
2018-08-04T12:42:00.197Z,31.80
2018-08-04T12:46:54.815Z,31.90
2018-08-04T12:51:49.493Z,31.90
2018-08-04T12:56:44.100Z,31.70
2018-08-04T13:01:38.730Z,31.70
2018-08-04T13:06:33.813Z,31.90
2018-08-04T13:11:28.429Z,32.10
2018-08-04T13:16:23.089Z,32.50
2018-08-04T13:21:17.738Z,32.70
2018-08-04T13:26:12.328Z,32.90
2018-08-04T13:31:06.959Z,33.10
2018-08-04T13:36:01.583Z,33.00
2018-08-04T13:40:59.593Z,33.10
2018-08-04T13:45:54.367Z,33.10
2018-08-04T13:50:49.138Z,33.10
2018-08-04T13:55:43.896Z,32.90
2018-08-04T14:00:38.743Z,32.80
2018-08-04T14:05:33.640Z,32.70
2018-08-04T14:10:28.417Z,32.60
2018-08-04T14:20:17.523Z,32.60
2018-08-04T14:25:25.123Z,32.70
2018-08-04T14:30:19.840Z,32.70
2018-08-04T14:35:14.512Z,32.70
2018-08-04T14:40:09.372Z,32.50
2018-08-04T14:45:04.232Z,32.40
2018-08-04T14:49:58.990Z,32.60
2018-08-04T14:54:53.752Z,32.70
2018-08-04T14:59:48.535Z,32.60
2018-08-04T15:04:43.419Z,32.60
2018-08-04T15:09:38.011Z,32.50
2018-08-04T15:14:32.707Z,32.40
2018-08-04T15:19:27.821Z,32.20
2018-08-04T15:24:22.630Z,32.00
2018-08-04T15:29:19.048Z,32.00
2018-08-04T15:34:13.918Z,32.00
2018-08-04T15:39:10.316Z,32.00
2018-08-04T15:48:59.624Z,32.50
2018-08-04T15:53:54.401Z,32.70
2018-08-04T15:58:49.188Z,32.60
2018-08-04T16:03:44.206Z,32.60
2018-08-04T16:08:39.252Z,32.30
2018-08-04T16:13:34.223Z,32.00
2018-08-04T16:18:29.086Z,31.70
2018-08-04T16:23:23.820Z,31.70
2018-08-04T16:28:18.748Z,31.50
2018-08-04T16:33:13.584Z,31.40
2018-08-04T16:38:08.276Z,31.50
2018-08-04T16:43:02.998Z,31.60
2018-08-04T16:47:57.707Z,31.40
2018-08-04T16:52:52.441Z,31.10
2018-08-04T16:57:47.222Z,30.90
2018-08-04T17:02:42.361Z,30.70
2018-08-04T17:07:37.288Z,30.50
2018-08-04T17:12:32.211Z,30.30
2018-08-04T17:17:27.008Z,30.00
2018-08-04T17:22:21.785Z,29.90
2018-08-04T17:27:25.478Z,29.80
2018-08-04T17:32:21.176Z,29.80
2018-08-04T17:37:15.933Z,29.70
2018-08-04T17:42:10.651Z,29.60
2018-08-04T17:47:05.499Z,29.50
2018-08-04T17:52:00.320Z,29.30
2018-08-04T17:56:55.184Z,29.30
2018-08-04T18:01:50.791Z,29.10
2018-08-04T18:06:45.647Z,29.00
2018-08-04T18:11:40.860Z,28.90
2018-08-04T18:16:35.868Z,28.90
2018-08-04T18:21:30.929Z,28.70
2018-08-04T18:26:25.701Z,28.70
2018-08-04T18:31:20.468Z,28.50
2018-08-04T18:36:15.342Z,28.50
2018-08-04T18:41:10.132Z,28.40
2018-08-04T18:46:04.933Z,28.40
2018-08-04T18:50:59.834Z,28.20
2018-08-04T18:55:54.739Z,28.30
2018-08-04T19:00:49.511Z,28.20
2018-08-04T19:05:44.383Z,27.90
2018-08-04T19:10:39.171Z,27.80
2018-08-04T19:15:34.065Z,27.80
2018-08-04T19:20:28.959Z,27.60
2018-08-04T19:25:24.727Z,27.60
2018-08-04T19:30:19.517Z,27.50
2018-08-04T19:35:14.268Z,27.40
2018-08-04T19:40:09.255Z,27.30
2018-08-04T19:45:04.259Z,27.10
2018-08-04T19:49:59.113Z,27.10
2018-08-04T19:54:54.261Z,27.00
2018-08-04T19:59:49.851Z,26.80
2018-08-04T20:04:44.709Z,26.70
2018-08-04T20:09:39.667Z,26.50
2018-08-04T20:14:34.558Z,26.50
2018-08-04T20:19:29.399Z,26.40
2018-08-04T20:24:24.204Z,26.30
2018-08-04T20:29:19.234Z,26.30
2018-08-04T20:34:14.105Z,26.10
2018-08-04T20:39:10.723Z,26.20
2018-08-04T20:44:05.664Z,26.00
2018-08-04T20:49:00.464Z,25.80
2018-08-04T20:53:55.263Z,25.60
2018-08-04T20:58:50.239Z,25.70
2018-08-04T21:03:45.131Z,25.70
2018-08-04T21:08:39.939Z,25.80
2018-08-04T21:13:34.748Z,25.70
2018-08-04T21:18:29.645Z,25.50
2018-08-04T21:23:24.439Z,25.40
2018-08-04T21:28:20.032Z,25.30
2018-08-04T21:33:14.973Z,25.30
2018-08-04T21:38:09.736Z,25.20
2018-08-04T21:43:04.554Z,25.00
2018-08-04T21:47:59.319Z,25.00
2018-08-04T21:52:55.807Z,24.80
2018-08-04T21:57:50.639Z,24.80
2018-08-04T22:02:58.967Z,24.80
2018-08-04T22:08:11.566Z,24.70
2018-08-04T22:13:06.813Z,24.70
2018-08-04T22:18:01.727Z,24.50
2018-08-04T22:27:51.310Z,24.40
2018-08-04T22:32:46.596Z,24.50
2018-08-04T22:37:41.922Z,24.30
2018-08-04T22:42:37.925Z,24.10
2018-08-04T22:47:32.834Z,24.00
2018-08-04T22:52:27.842Z,24.10
2018-08-04T22:57:22.607Z,24.20
2018-08-04T23:02:17.317Z,24.10
2018-08-04T23:07:12.123Z,24.20
2018-08-04T23:12:07.004Z,23.90
2018-08-04T23:17:02.018Z,23.90
2018-08-04T23:21:56.808Z,23.90
2018-08-04T23:26:52.042Z,23.70
2018-08-04T23:31:47.129Z,23.60
2018-08-04T23:36:41.910Z,23.70
2018-08-04T23:41:36.832Z,23.50
2018-08-04T23:51:26.934Z,23.90
2018-08-04T23:56:21.812Z,23.90
